sensor_id;sensor_type;location;lat;lon;timestamp;pressure;altitude;pressure_sealevel;temperature;humidity
58092;BME280;43896;48.178;11.578;2023-07-02T04:39:02;95391.03;;;15.20;79.55
58092;BME280;43896;48.178;11.578;2023-07-02T05:10:58;95492.72;;;17.02;74.07
58092;BME280;43896;48.178;11.578;2023-07-02T05:13:46;95470.66;;;16.55;75.75
58092;BME280;43896;48.178;11.578;2023-07-02T05:16:50;95448.59;;;16.28;77.18
58092;BME280;43896;48.178;11.578;2023-07-02T05:19:43;95491.69;;;16.70;76.00
58092;BME280;43896;48.178;11.578;2023-07-02T05:22:17;95489.63;;;16.59;76.88
58092;BME280;43896;48.178;11.578;2023-07-02T05:28:52;95406.56;;;16.25;76.68
58092;BME280;43896;48.178;11.578;2023-07-02T05:31:24;95471.47;;;16.42;76.53
58092;BME280;43896;48.178;11.578;2023-07-02T05:33:49;95502.50;;;16.42;78.29
58092;BME280;43896;48.178;11.578;2023-07-02T05:36:15;95496.38;;;16.55;77.08
58092;BME280;43896;48.178;11.578;2023-07-02T05:38:40;95498.84;;;16.90;76.46
58092;BME280;43896;48.178;11.578;2023-07-02T05:41:05;95445.94;;;16.28;75.75
58092;BME280;43896;48.178;11.578;2023-07-02T05:43:31;95452.09;;;16.42;76.34
58092;BME280;43896;48.178;11.578;2023-07-02T05:45:58;95435.53;;;16.33;76.57
58092;BME280;43896;48.178;11.578;2023-07-02T05:48:25;95498.84;;;16.90;76.18
58092;BME280;43896;48.178;11.578;2023-07-02T05:50:50;95482.28;;;17.01;74.64
58092;BME280;43896;48.178;11.578;2023-07-02T05:53:16;95450.59;;;17.06;74.33
58092;BME280;43896;48.178;11.578;2023-07-02T05:55:45;95503.28;;;17.29;74.74
58092;BME280;43896;48.178;11.578;2023-07-02T05:58:13;95481.59;;;17.32;73.52
58092;BME280;43896;48.178;11.578;2023-07-02T06:00:41;95473.78;;;17.44;74.07
58092;BME280;43896;48.178;11.578;2023-07-02T06:03:24;95483.28;;;17.20;74.82
58092;BME280;43896;48.178;11.578;2023-07-02T06:05:52;95509.53;;;17.55;73.31
58092;BME280;43896;48.178;11.578;2023-07-02T06:08:20;95482.31;;;16.54;77.43
58092;BME280;43896;48.178;11.578;2023-07-02T06:10:46;95450.63;;;16.73;75.46
58092;BME280;43896;48.178;11.578;2023-07-02T06:13:12;95456.34;;;16.96;74.14
58092;BME280;43896;48.178;11.578;2023-07-02T06:15:37;95459.81;;;16.70;75.58
58092;BME280;43896;48.178;11.578;2023-07-02T06:18:03;95495.59;;;16.61;76.95
58092;BME280;43896;48.178;11.578;2023-07-02T06:20:28;95491.06;;;17.01;74.90
58092;BME280;43896;48.178;11.578;2023-07-02T06:22:53;95484.13;;;17.07;73.66
58092;BME280;43896;48.178;11.578;2023-07-02T06:25:19;95494.72;;;17.20;72.50
58092;BME280;43896;48.178;11.578;2023-07-02T06:27:44;95500.63;;;17.22;72.84
58092;BME280;43896;48.178;11.578;2023-07-02T06:30:10;95493.53;;;16.96;74.67
58092;BME280;43896;48.178;11.578;2023-07-02T06:32:35;95529.06;;;17.15;75.48
58092;BME280;43896;48.178;11.578;2023-07-02T06:35:01;95539.06;;;17.33;74.19
58092;BME280;43896;48.178;11.578;2023-07-02T06:37:29;95531.47;;;17.43;74.41
58092;BME280;43896;48.178;11.578;2023-07-02T06:39:54;95523.09;;;17.40;74.40
58092;BME280;43896;48.178;11.578;2023-07-02T06:42:20;95533.50;;;17.48;73.11
58092;BME280;43896;48.178;11.578;2023-07-02T06:44:46;95523.72;;;17.42;72.56
58092;BME280;43896;48.178;11.578;2023-07-02T06:47:11;95489.63;;;16.65;75.62
58092;BME280;43896;48.178;11.578;2023-07-02T06:49:36;95485.16;;;16.93;74.42
58092;BME280;43896;48.178;11.578;2023-07-02T06:52:02;95449.41;;;16.62;76.09
58092;BME280;43896;48.178;11.578;2023-07-02T06:54:27;95510.69;;;16.67;76.73
58092;BME280;43896;48.178;11.578;2023-07-02T06:56:53;95483.72;;;16.83;74.83
58092;BME280;43896;48.178;11.578;2023-07-02T06:59:22;95506.81;;;17.03;74.72
58092;BME280;43896;48.178;11.578;2023-07-02T07:01:47;95493.13;;;17.06;73.96
58092;BME280;43896;48.178;11.578;2023-07-02T07:04:13;95509.88;;;17.00;74.76
58092;BME280;43896;48.178;11.578;2023-07-02T07:06:38;95568.31;;;17.06;77.12
58092;BME280;43896;48.178;11.578;2023-07-02T07:09:04;95550.09;;;17.23;75.09
58092;BME280;43896;48.178;11.578;2023-07-02T07:11:29;95514.97;;;17.08;74.63
58092;BME280;43896;48.178;11.578;2023-07-02T07:13:55;95495.38;;;17.02;74.99
58092;BME280;43896;48.178;11.578;2023-07-02T07:16:20;95527.41;;;16.74;78.48
58092;BME280;43896;48.178;11.578;2023-07-02T07:18:45;95572.63;;;17.01;78.02
58092;BME280;43896;48.178;11.578;2023-07-02T07:21:11;95548.09;;;17.05;74.64
58092;BME280;43896;48.178;11.578;2023-07-02T07:23:36;95584.44;;;17.32;74.26
58092;BME280;43896;48.178;11.578;2023-07-02T07:26:02;95516.03;;;16.94;74.45
58092;BME280;43896;48.178;11.578;2023-07-02T07:28:27;95551.38;;;17.08;75.81
58092;BME280;43896;48.178;11.578;2023-07-02T07:30:52;95551.16;;;17.16;75.40
58092;BME280;43896;48.178;11.578;2023-07-02T07:33:18;95575.22;;;17.34;74.82
58092;BME280;43896;48.178;11.578;2023-07-02T07:35:43;95479.00;;;16.65;74.77
58092;BME280;43896;48.178;11.578;2023-07-02T07:38:08;95506.22;;;16.87;75.03
58092;BME280;43896;48.178;11.578;2023-07-02T07:40:34;95523.59;;;16.90;74.65
58092;BME280;43896;48.178;11.578;2023-07-02T07:42:59;95585.47;;;17.31;75.45
58092;BME280;43896;48.178;11.578;2023-07-02T07:45:25;95540.53;;;17.02;74.80
58092;BME280;43896;48.178;11.578;2023-07-02T07:49:57;95568.53;;;16.92;76.83
58092;BME280;43896;48.178;11.578;2023-07-02T07:52:23;95538.03;;;16.81;76.85
58092;BME280;43896;48.178;11.578;2023-07-02T07:54:48;95526.38;;;16.28;80.21
58092;BME280;43896;48.178;11.578;2023-07-02T07:57:14;95532.53;;;16.69;77.76
58092;BME280;43896;48.178;11.578;2023-07-02T07:59:39;95534.16;;;16.57;78.16
58092;BME280;43896;48.178;11.578;2023-07-02T08:02:05;95585.44;;;16.77;78.88
58092;BME280;43896;48.178;11.578;2023-07-02T08:04:30;95583.84;;;17.23;77.29
58092;BME280;43896;48.178;11.578;2023-07-02T08:06:56;95562.00;;;17.14;78.68
58092;BME280;43896;48.178;11.578;2023-07-02T08:09:23;95589.09;;;17.56;76.58
58092;BME280;43896;48.178;11.578;2023-07-02T08:11:48;95568.03;;;17.61;77.06
58092;BME280;43896;48.178;11.578;2023-07-02T08:14:13;95586.38;;;17.83;76.93
58092;BME280;43896;48.178;11.578;2023-07-02T08:16:39;95586.78;;;17.93;77.11
58092;BME280;43896;48.178;11.578;2023-07-02T08:19:04;95566.13;;;17.82;75.78
58092;BME280;43896;48.178;11.578;2023-07-02T08:21:30;95601.31;;;17.97;75.95
58092;BME280;43896;48.178;11.578;2023-07-02T08:23:56;95598.25;;;17.94;75.87
58092;BME280;43896;48.178;11.578;2023-07-02T08:26:22;95604.81;;;17.85;77.11
58092;BME280;43896;48.178;11.578;2023-07-02T08:28:48;95601.75;;;17.74;77.27
58092;BME280;43896;48.178;11.578;2023-07-02T08:31:13;95599.72;;;17.70;76.73
58092;BME280;43896;48.178;11.578;2023-07-02T08:33:38;95571.28;;;17.63;76.38
58092;BME280;43896;48.178;11.578;2023-07-02T08:36:04;95608.56;;;17.03;80.66
58092;BME280;43896;48.178;11.578;2023-07-02T08:38:29;95593.59;;;16.76;82.41
58092;BME280;43896;48.178;11.578;2023-07-02T08:40:54;95596.25;;;16.76;82.54
58092;BME280;43896;48.178;11.578;2023-07-02T08:43:20;95601.66;;;17.16;79.70
58092;BME280;43896;48.178;11.578;2023-07-02T08:45:45;95618.56;;;17.61;76.65
58092;BME280;43896;48.178;11.578;2023-07-02T08:48:11;95614.66;;;17.71;75.04
58092;BME280;43896;48.178;11.578;2023-07-02T08:50:36;95609.38;;;17.37;77.62
58092;BME280;43896;48.178;11.578;2023-07-02T08:53:02;95617.13;;;17.66;75.68
58092;BME280;43896;48.178;11.578;2023-07-02T08:55:27;95624.66;;;17.69;76.58
58092;BME280;43896;48.178;11.578;2023-07-02T08:57:56;95617.13;;;17.59;77.41
58092;BME280;43896;48.178;11.578;2023-07-02T09:00:24;95597.28;;;17.61;75.97
58092;BME280;43896;48.178;11.578;2023-07-02T09:02:49;95619.16;;;17.63;75.89
58092;BME280;43896;48.178;11.578;2023-07-02T09:05:15;95626.09;;;17.78;74.63
58092;BME280;43896;48.178;11.578;2023-07-02T09:07:48;95611.16;;;17.77;74.89
58092;BME280;43896;48.178;11.578;2023-07-02T09:10:27;95599.41;;;17.26;77.54
58092;BME280;43896;48.178;11.578;2023-07-02T09:13:06;95607.53;;;17.44;79.03
58092;BME280;43896;48.178;11.578;2023-07-02T09:15:38;95616.50;;;17.63;74.01
58092;BME280;43896;48.178;11.578;2023-07-02T09:18:31;95629.78;;;17.63;76.25
58092;BME280;43896;48.178;11.578;2023-07-02T09:20:57;95607.09;;;17.61;75.83
58092;BME280;43896;48.178;11.578;2023-07-02T09:23:22;95599.53;;;17.58;75.95
58092;BME280;43896;48.178;11.578;2023-07-02T09:25:47;95632.03;;;17.80;76.99
58092;BME280;43896;48.178;11.578;2023-07-02T09:28:14;95625.44;;;17.83;77.45
58092;BME280;43896;48.178;11.578;2023-07-02T09:30:51;95629.56;;;17.98;77.78
58092;BME280;43896;48.178;11.578;2023-07-02T09:33:16;95603.75;;;17.86;76.13
58092;BME280;43896;48.178;11.578;2023-07-02T09:35:42;95635.69;;;17.86;77.44
58092;BME280;43896;48.178;11.578;2023-07-02T09:38:09;95613.22;;;17.88;76.02
58092;BME280;43896;48.178;11.578;2023-07-02T09:40:38;95614.41;;;17.92;75.89
58092;BME280;43896;48.178;11.578;2023-07-02T09:43:09;95614.22;;;17.87;74.98
58092;BME280;43896;48.178;11.578;2023-07-02T09:45:35;95621.00;;;17.90;75.13
58092;BME280;43896;48.178;11.578;2023-07-02T09:48:01;95617.69;;;17.88;75.52
58092;BME280;43896;48.178;11.578;2023-07-02T09:50:29;95619.13;;;17.90;75.48
58092;BME280;43896;48.178;11.578;2023-07-02T09:52:55;95617.69;;;17.88;75.97
58092;BME280;43896;48.178;11.578;2023-07-02T09:55:21;95612.16;;;17.96;75.19
58092;BME280;43896;48.178;11.578;2023-07-02T09:57:46;95636.66;;;18.11;74.71
58092;BME280;43896;48.178;11.578;2023-07-02T10:00:13;95641.75;;;18.20;74.51
58092;BME280;43896;48.178;11.578;2023-07-02T10:02:38;95618.06;;;18.05;75.59
58092;BME280;43896;48.178;11.578;2023-07-02T10:05:04;95624.72;;;18.27;75.98
58092;BME280;43896;48.178;11.578;2023-07-02T10:07:31;95637.91;;;18.09;76.91
58092;BME280;43896;48.178;11.578;2023-07-02T10:10:00;95609.06;;;18.06;75.03
58092;BME280;43896;48.178;11.578;2023-07-02T10:12:29;95612.50;;;18.13;72.91
58092;BME280;43896;48.178;11.578;2023-07-02T10:14:56;95604.94;;;18.03;73.50
58092;BME280;43896;48.178;11.578;2023-07-02T10:17:29;95615.13;;;18.26;73.87
58092;BME280;43896;48.178;11.578;2023-07-02T10:19:59;95608.09;;;18.39;74.09
58092;BME280;43896;48.178;11.578;2023-07-02T10:22:25;95569.41;;;18.36;73.60
58092;BME280;43896;48.178;11.578;2023-07-02T10:24:56;95589.25;;;18.72;73.11
58092;BME280;43896;48.178;11.578;2023-07-02T10:27:37;95615.91;;;19.04;70.98
58092;BME280;43896;48.178;11.578;2023-07-02T10:30:05;95591.66;;;19.12;72.06
58092;BME280;43896;48.178;11.578;2023-07-02T10:32:32;95558.00;;;19.36;70.86
58092;BME280;43896;48.178;11.578;2023-07-02T10:34:59;95620.69;;;20.26;67.76
58092;BME280;43896;48.178;11.578;2023-07-02T10:37:26;95594.41;;;19.93;68.64
58092;BME280;43896;48.178;11.578;2023-07-02T10:39:52;95561.75;;;19.72;68.82
58092;BME280;43896;48.178;11.578;2023-07-02T10:42:17;95581.56;;;19.83;67.94
58092;BME280;43896;48.178;11.578;2023-07-02T10:44:52;95606.47;;;19.95;67.17
58092;BME280;43896;48.178;11.578;2023-07-02T10:47:18;95614.97;;;19.85;64.72
58092;BME280;43896;48.178;11.578;2023-07-02T10:49:45;95577.22;;;19.63;66.62
58092;BME280;43896;48.178;11.578;2023-07-02T10:52:10;95577.81;;;19.65;66.00
58092;BME280;43896;48.178;11.578;2023-07-02T10:54:43;95609.94;;;19.96;64.41
58092;BME280;43896;48.178;11.578;2023-07-02T10:57:10;95525.75;;;19.19;68.71
58092;BME280;43896;48.178;11.578;2023-07-02T10:59:37;95562.03;;;19.64;65.61
58092;BME280;43896;48.178;11.578;2023-07-02T11:02:03;95607.34;;;20.08;66.01
58092;BME280;43896;48.178;11.578;2023-07-02T11:04:33;95549.63;;;19.76;64.21
58092;BME280;43896;48.178;11.578;2023-07-02T11:06:59;95584.06;;;20.15;63.61
58092;BME280;43896;48.178;11.578;2023-07-02T11:09:25;95603.84;;;20.26;63.62
58092;BME280;43896;48.178;11.578;2023-07-02T11:11:52;95594.88;;;20.20;63.63
58092;BME280;43896;48.178;11.578;2023-07-02T11:14:31;95602.91;;;20.50;64.04
58092;BME280;43896;48.178;11.578;2023-07-02T11:16:57;95583.94;;;20.40;63.17
58092;BME280;43896;48.178;11.578;2023-07-02T11:19:23;95585.59;;;20.41;63.62
58092;BME280;43896;48.178;11.578;2023-07-02T11:21:53;95589.78;;;20.49;62.79
58092;BME280;43896;48.178;11.578;2023-07-02T11:24:35;95598.56;;;20.37;62.62
58092;BME280;43896;48.178;11.578;2023-07-02T11:27:02;95568.88;;;20.76;62.45
58092;BME280;43896;48.178;11.578;2023-07-02T11:29:31;95586.50;;;21.19;60.94
58092;BME280;43896;48.178;11.578;2023-07-02T11:32:06;95578.81;;;20.99;62.96
58092;BME280;43896;48.178;11.578;2023-07-02T11:34:32;95563.13;;;21.14;62.03
58092;BME280;43896;48.178;11.578;2023-07-02T11:36:57;95521.97;;;21.15;62.02
58092;BME280;43896;48.178;11.578;2023-07-02T11:39:23;95518.38;;;21.22;61.25
58092;BME280;43896;48.178;11.578;2023-07-02T11:41:49;95551.53;;;21.56;59.77
58092;BME280;43896;48.178;11.578;2023-07-02T11:44:21;95603.59;;;22.13;59.25
58092;BME280;43896;48.178;11.578;2023-07-02T11:46:49;95552.06;;;22.22;57.05
58092;BME280;43896;48.178;11.578;2023-07-02T11:49:15;95544.88;;;22.23;56.55
58092;BME280;43896;48.178;11.578;2023-07-02T11:51:41;95511.50;;;22.02;57.00
58092;BME280;43896;48.178;11.578;2023-07-02T11:54:11;95539.72;;;22.33;56.67
58092;BME280;43896;48.178;11.578;2023-07-02T11:56:37;95483.63;;;22.15;56.68
58092;BME280;43896;48.178;11.578;2023-07-02T11:59:03;95521.88;;;21.98;56.95
58092;BME280;43896;48.178;11.578;2023-07-02T12:01:28;95528.47;;;21.67;55.87
58092;BME280;43896;48.178;11.578;2023-07-02T12:03:54;95562.91;;;21.75;57.84
58092;BME280;43896;48.178;11.578;2023-07-02T12:06:19;95506.03;;;21.56;58.43
58092;BME280;43896;48.178;11.578;2023-07-02T12:09:12;95557.59;;;22.44;58.09
58092;BME280;43896;48.178;11.578;2023-07-02T12:11:40;95515.69;;;22.38;57.19
58092;BME280;43896;48.178;11.578;2023-07-02T12:14:06;95490.94;;;22.19;57.74
58092;BME280;43896;48.178;11.578;2023-07-02T12:16:32;95468.69;;;21.90;56.76
58092;BME280;43896;48.178;11.578;2023-07-02T12:18:57;95497.34;;;22.30;56.76
58092;BME280;43896;48.178;11.578;2023-07-02T12:21:22;95524.22;;;22.35;56.72
58092;BME280;43896;48.178;11.578;2023-07-02T12:23:48;95508.19;;;22.69;56.58
58092;BME280;43896;48.178;11.578;2023-07-02T12:26:16;95510.56;;;22.99;55.27
58092;BME280;43896;48.178;11.578;2023-07-02T12:28:51;95467.56;;;23.11;53.39
58092;BME280;43896;48.178;11.578;2023-07-02T12:31:17;95547.69;;;23.81;52.02
58092;BME280;43896;48.178;11.578;2023-07-02T12:33:42;95537.88;;;23.86;52.66
58092;BME280;43896;48.178;11.578;2023-07-02T12:36:07;95494.75;;;23.37;52.90
58092;BME280;43896;48.178;11.578;2023-07-02T12:38:33;95520.81;;;23.81;51.79
58092;BME280;43896;48.178;11.578;2023-07-02T12:40:58;95505.97;;;23.51;53.90
58092;BME280;43896;48.178;11.578;2023-07-02T12:43:23;95509.81;;;23.04;55.01
58092;BME280;43896;48.178;11.578;2023-07-02T12:45:50;95535.75;;;23.88;53.49
58092;BME280;43896;48.178;11.578;2023-07-02T12:48:16;95511.88;;;24.14;50.50
58092;BME280;43896;48.178;11.578;2023-07-02T12:50:41;95520.44;;;24.38;50.33
58092;BME280;43896;48.178;11.578;2023-07-02T12:53:07;95509.25;;;24.46;49.52
58092;BME280;43896;48.178;11.578;2023-07-02T12:55:32;95520.66;;;24.31;50.86
58092;BME280;43896;48.178;11.578;2023-07-02T12:57:57;95494.69;;;24.42;48.37
58092;BME280;43896;48.178;11.578;2023-07-02T13:00:23;95525.13;;;24.75;48.14
58092;BME280;43896;48.178;11.578;2023-07-02T13:02:48;95497.72;;;24.78;47.71
58092;BME280;43896;48.178;11.578;2023-07-02T13:05:14;95510.81;;;24.69;47.69
58092;BME280;43896;48.178;11.578;2023-07-02T13:07:39;95514.69;;;24.84;48.27
58092;BME280;43896;48.178;11.578;2023-07-02T13:10:05;95503.66;;;24.80;46.71
58092;BME280;43896;48.178;11.578;2023-07-02T13:12:31;95516.50;;;24.73;46.62
58092;BME280;43896;48.178;11.578;2023-07-02T13:14:56;95505.38;;;24.37;45.34
58092;BME280;43896;48.178;11.578;2023-07-02T13:17:21;95488.44;;;23.87;45.13
58092;BME280;43896;48.178;11.578;2023-07-02T13:19:47;95484.28;;;23.01;48.21
58092;BME280;43896;48.178;11.578;2023-07-02T13:22:14;95492.66;;;23.22;47.46
58092;BME280;43896;48.178;11.578;2023-07-02T13:24:39;95513.56;;;23.37;47.87
58092;BME280;43896;48.178;11.578;2023-07-02T13:27:09;95482.78;;;23.23;46.22
58092;BME280;43896;48.178;11.578;2023-07-02T13:29:36;95519.66;;;23.71;45.81
58092;BME280;43896;48.178;11.578;2023-07-02T13:32:01;95514.81;;;23.51;44.97
58092;BME280;43896;48.178;11.578;2023-07-02T13:34:26;95513.19;;;23.89;44.00
58092;BME280;43896;48.178;11.578;2023-07-02T13:36:52;95491.97;;;23.49;44.75
58092;BME280;43896;48.178;11.578;2023-07-02T13:39:17;95512.75;;;23.98;43.58
58092;BME280;43896;48.178;11.578;2023-07-02T13:41:42;95496.59;;;23.75;43.50
58092;BME280;43896;48.178;11.578;2023-07-02T13:44:08;95489.94;;;23.78;43.69
58092;BME280;43896;48.178;11.578;2023-07-02T13:46:33;95484.44;;;23.29;43.90
58092;BME280;43896;48.178;11.578;2023-07-02T13:48:58;95503.56;;;23.15;45.92
58092;BME280;43896;48.178;11.578;2023-07-02T13:51:24;95508.88;;;23.49;45.33
58092;BME280;43896;48.178;11.578;2023-07-02T13:53:49;95487.47;;;23.93;43.80
58092;BME280;43896;48.178;11.578;2023-07-02T13:56:14;95488.81;;;23.96;44.96
58092;BME280;43896;48.178;11.578;2023-07-02T13:58:58;95481.13;;;23.83;45.44
58092;BME280;43896;48.178;11.578;2023-07-02T14:01:24;95499.94;;;24.32;44.16
58092;BME280;43896;48.178;11.578;2023-07-02T14:03:50;95504.31;;;24.38;43.32
58092;BME280;43896;48.178;11.578;2023-07-02T14:06:16;95502.91;;;24.08;42.61
58092;BME280;43896;48.178;11.578;2023-07-02T14:08:41;95504.44;;;23.38;44.91
58092;BME280;43896;48.178;11.578;2023-07-02T14:11:07;95512.75;;;23.58;44.93
58092;BME280;43896;48.178;11.578;2023-07-02T14:13:32;95506.41;;;23.65;44.16
58092;BME280;43896;48.178;11.578;2023-07-02T14:15:59;95507.53;;;23.69;44.84
58092;BME280;43896;48.178;11.578;2023-07-02T14:18:24;95481.19;;;23.66;44.78
58092;BME280;43896;48.178;11.578;2023-07-02T14:20:50;95509.59;;;23.62;45.02
58092;BME280;43896;48.178;11.578;2023-07-02T14:23:15;95506.44;;;23.48;44.51
58092;BME280;43896;48.178;11.578;2023-07-02T14:25:40;95505.97;;;23.51;45.62
58092;BME280;43896;48.178;11.578;2023-07-02T14:28:06;95484.81;;;23.76;45.65
58092;BME280;43896;48.178;11.578;2023-07-02T14:30:31;95490.13;;;23.71;45.35
58092;BME280;43896;48.178;11.578;2023-07-02T14:32:56;95492.50;;;23.68;44.48
58092;BME280;43896;48.178;11.578;2023-07-02T14:35:21;95506.06;;;24.00;44.41
58092;BME280;43896;48.178;11.578;2023-07-02T14:37:51;95510.41;;;24.28;43.70
58092;BME280;43896;48.178;11.578;2023-07-02T14:40:17;95502.44;;;24.39;43.03
58092;BME280;43896;48.178;11.578;2023-07-02T14:42:42;95506.47;;;24.36;42.98
58092;BME280;43896;48.178;11.578;2023-07-02T14:45:08;95490.94;;;24.16;42.97
58092;BME280;43896;48.178;11.578;2023-07-02T14:47:34;95505.22;;;24.49;42.61
58092;BME280;43896;48.178;11.578;2023-07-02T14:50:00;95485.22;;;24.34;43.32
58092;BME280;43896;48.178;11.578;2023-07-02T14:52:25;95465.06;;;24.10;43.38
58092;BME280;43896;48.178;11.578;2023-07-02T14:54:50;95474.72;;;23.84;42.63
58092;BME280;43896;48.178;11.578;2023-07-02T14:57:16;95496.78;;;23.69;43.98
58092;BME280;43896;48.178;11.578;2023-07-02T14:59:42;95506.84;;;23.56;44.61
58092;BME280;43896;48.178;11.578;2023-07-02T15:02:07;95502.72;;;23.49;45.76
58092;BME280;43896;48.178;11.578;2023-07-02T15:04:33;95489.03;;;23.11;46.50
58092;BME280;43896;48.178;11.578;2023-07-02T15:06:58;95499.03;;;23.55;45.13
58092;BME280;43896;48.178;11.578;2023-07-02T15:09:24;95483.69;;;23.50;44.67
58092;BME280;43896;48.178;11.578;2023-07-02T15:11:49;95488.47;;;23.48;44.06
58092;BME280;43896;48.178;11.578;2023-07-02T15:14:14;95511.63;;;23.54;44.74
58092;BME280;43896;48.178;11.578;2023-07-02T15:16:40;95510.88;;;23.20;45.14
58092;BME280;43896;48.178;11.578;2023-07-02T15:19:05;95498.59;;;23.24;45.19
58092;BME280;43896;48.178;11.578;2023-07-02T15:21:31;95498.41;;;23.70;44.66
58092;BME280;43896;48.178;11.578;2023-07-02T15:23:57;95500.94;;;23.99;45.48
58092;BME280;43896;48.178;11.578;2023-07-02T15:26:22;95505.09;;;24.11;43.85
58092;BME280;43896;48.178;11.578;2023-07-02T15:28:47;95488.00;;;23.95;44.19
58092;BME280;43896;48.178;11.578;2023-07-02T15:31:16;95493.63;;;24.16;43.55
58092;BME280;43896;48.178;11.578;2023-07-02T15:33:41;95500.34;;;24.19;44.07
58092;BME280;43896;48.178;11.578;2023-07-02T15:36:07;95488.59;;;23.81;45.34
58092;BME280;43896;48.178;11.578;2023-07-02T15:38:34;95485.69;;;24.04;46.17
58092;BME280;43896;48.178;11.578;2023-07-02T15:41:14;95464.09;;;24.21;45.00
58092;BME280;43896;48.178;11.578;2023-07-02T15:43:40;95489.19;;;24.32;44.00
58092;BME280;43896;48.178;11.578;2023-07-02T15:46:07;95479.97;;;24.23;43.36
58092;BME280;43896;48.178;11.578;2023-07-02T15:48:32;95478.25;;;23.89;44.07
58092;BME280;43896;48.178;11.578;2023-07-02T15:50:57;95493.97;;;23.81;44.97
58092;BME280;43896;48.178;11.578;2023-07-02T15:53:23;95490.81;;;24.06;42.90
58092;BME280;43896;48.178;11.578;2023-07-02T15:55:59;95477.53;;;23.94;43.49
58092;BME280;43896;48.178;11.578;2023-07-02T15:58:26;95483.06;;;24.09;43.41
58092;BME280;43896;48.178;11.578;2023-07-02T16:00:52;95486.34;;;24.17;42.35
58092;BME280;43896;48.178;11.578;2023-07-02T16:03:18;95482.06;;;24.15;43.25
58092;BME280;43896;48.178;11.578;2023-07-02T16:05:44;95484.22;;;23.91;44.06
58092;BME280;43896;48.178;11.578;2023-07-02T16:08:10;95469.25;;;23.78;42.86
58092;BME280;43896;48.178;11.578;2023-07-02T16:10:40;95470.22;;;23.89;42.86
58092;BME280;43896;48.178;11.578;2023-07-02T16:13:06;95476.41;;;23.90;43.70
58092;BME280;43896;48.178;11.578;2023-07-02T16:15:31;95466.91;;;23.82;44.11
58092;BME280;43896;48.178;11.578;2023-07-02T16:17:57;95472.13;;;23.72;45.47
58092;BME280;43896;48.178;11.578;2023-07-02T16:20:22;95466.81;;;23.77;43.64
58092;BME280;43896;48.178;11.578;2023-07-02T16:22:47;95460.28;;;23.68;44.20
58092;BME280;43896;48.178;11.578;2023-07-02T16:25:13;95481.63;;;23.80;42.77
58092;BME280;43896;48.178;11.578;2023-07-02T16:27:38;95473.13;;;23.66;42.83
58092;BME280;43896;48.178;11.578;2023-07-02T16:30:04;95483.56;;;23.62;43.91
58092;BME280;43896;48.178;11.578;2023-07-02T16:32:29;95472.69;;;23.52;44.05
58092;BME280;43896;48.178;11.578;2023-07-02T16:34:56;95473.31;;;23.59;43.45
58092;BME280;43896;48.178;11.578;2023-07-02T16:37:22;95467.38;;;23.35;43.83
58092;BME280;43896;48.178;11.578;2023-07-02T16:39:48;95481.81;;;23.51;44.90
58092;BME280;43896;48.178;11.578;2023-07-02T16:42:13;95462.63;;;23.42;44.87
58092;BME280;43896;48.178;11.578;2023-07-02T16:44:38;95494.91;;;23.47;44.65
58092;BME280;43896;48.178;11.578;2023-07-02T16:47:04;95482.31;;;23.31;44.62
58092;BME280;43896;48.178;11.578;2023-07-02T16:49:30;95485.50;;;23.28;44.60
58092;BME280;43896;48.178;11.578;2023-07-02T16:51:56;95490.88;;;23.28;44.87
58092;BME280;43896;48.178;11.578;2023-07-02T16:54:23;95489.88;;;23.34;44.89
58092;BME280;43896;48.178;11.578;2023-07-02T16:56:51;95494.13;;;23.30;45.47
58092;BME280;43896;48.178;11.578;2023-07-02T16:59:18;95495.59;;;23.20;45.41
58092;BME280;43896;48.178;11.578;2023-07-02T17:01:49;95492.50;;;22.95;46.86
58092;BME280;43896;48.178;11.578;2023-07-02T17:04:15;95494.72;;;23.15;45.55
58092;BME280;43896;48.178;11.578;2023-07-02T17:06:46;95474.97;;;23.04;45.30
58092;BME280;43896;48.178;11.578;2023-07-02T17:09:22;95490.22;;;23.20;45.23
58092;BME280;43896;48.178;11.578;2023-07-02T17:11:49;95494.56;;;23.21;44.58
58092;BME280;43896;48.178;11.578;2023-07-02T17:14:18;95494.47;;;23.16;44.60
58092;BME280;43896;48.178;11.578;2023-07-02T17:16:51;95487.22;;;23.17;44.70
58092;BME280;43896;48.178;11.578;2023-07-02T17:19:19;95488.16;;;23.06;44.93
58092;BME280;43896;48.178;11.578;2023-07-02T17:21:49;95497.13;;;22.99;45.12
58092;BME280;43896;48.178;11.578;2023-07-02T17:24:18;95499.97;;;22.93;45.97
58092;BME280;43896;48.178;11.578;2023-07-02T17:26:44;95489.50;;;22.91;45.99
58092;BME280;43896;48.178;11.578;2023-07-02T17:29:11;95469.44;;;22.77;46.09
58092;BME280;43896;48.178;11.578;2023-07-02T17:31:36;95480.97;;;22.77;45.82
58092;BME280;43896;48.178;11.578;2023-07-02T17:34:01;95470.84;;;22.62;46.53
58092;BME280;43896;48.178;11.578;2023-07-02T17:36:27;95498.22;;;22.81;46.69
58092;BME280;43896;48.178;11.578;2023-07-02T17:38:52;95484.88;;;22.87;46.62
58092;BME280;43896;48.178;11.578;2023-07-02T17:41:18;95476.91;;;22.58;47.03
58092;BME280;43896;48.178;11.578;2023-07-02T17:43:43;95501.69;;;22.82;46.23
58092;BME280;43896;48.178;11.578;2023-07-02T17:46:09;95471.38;;;22.47;46.48
58092;BME280;43896;48.178;11.578;2023-07-02T17:48:34;95486.16;;;22.67;46.10
58092;BME280;43896;48.178;11.578;2023-07-02T17:51:00;95485.38;;;22.66;46.16
58092;BME280;43896;48.178;11.578;2023-07-02T17:53:26;95480.63;;;22.57;46.36
58092;BME280;43896;48.178;11.578;2023-07-02T17:55:54;95503.88;;;22.68;46.89
58092;BME280;43896;48.178;11.578;2023-07-02T17:58:19;95480.06;;;22.55;46.52
58092;BME280;43896;48.178;11.578;2023-07-02T18:00:47;95493.84;;;22.46;47.40
58092;BME280;43896;48.178;11.578;2023-07-02T18:03:13;95480.06;;;22.26;48.06